Time;durP1;ratioP1;P1;durP2;ratioP2;P2;SDS_P1;SDS_P2;PMS_P1;PMS_P2;Temp;Humidity;BMP_temperature;BMP_pressure;BME280_temperature;BME280_humidity;BME280_pressure;Samples;Min_cycle;Max_cycle;Signal;HPM_P1;HPM_P2
2022/12/12 00:00:43;;;;;;;19.45;7.25;;;2.50;85.70;;;;;;5097734;28;20032;-77
2022/12/12 00:03:09;;;;;;;18.17;7.03;;;2.60;85.90;;;;;;5115815;28;20020;-77
2022/12/12 00:05:34;;;;;;;18.33;7.22;;;2.60;85.80;;;;;;5115619;28;20087;-77
2022/12/12 00:08:00;;;;;;;20.48;7.57;;;2.60;85.90;;;;;;5115499;28;20024;-76
2022/12/12 00:10:26;;;;;;;21.23;8.70;;;2.60;85.90;;;;;;5115658;28;20031;-77
2022/12/12 00:12:51;;;;;;;20.35;8.68;;;2.70;85.90;;;;;;5097658;28;20028;-77
2022/12/12 00:15:17;;;;;;;17.25;7.50;;;2.70;85.80;;;;;;5115577;28;20087;-76
2022/12/12 00:17:42;;;;;;;19.83;8.15;;;2.70;85.40;;;;;;5115383;28;20084;-76
2022/12/12 00:20:08;;;;;;;18.13;7.88;;;2.70;85.60;;;;;;5114409;28;20583;-77
2022/12/12 00:22:34;;;;;;;19.98;8.77;;;2.70;85.30;;;;;;5114465;28;20036;-77
2022/12/12 00:24:59;;;;;;;19.05;8.55;;;2.70;85.60;;;;;;5115244;28;20028;-76
2022/12/12 00:27:25;;;;;;;20.88;8.13;;;2.70;85.80;;;;;;5097229;28;20029;-77
2022/12/12 00:29:53;;;;;;;18.83;7.65;;;2.70;85.70;;;;;;5114153;28;20050;-77
2022/12/12 00:32:19;;;;;;;22.35;8.52;;;2.70;85.50;;;;;;5114130;28;20012;-77
2022/12/12 00:34:45;;;;;;;15.52;7.20;;;2.70;85.20;;;;;;5115049;28;20023;-77
2022/12/12 00:37:11;;;;;;;18.50;6.82;;;2.60;85.30;;;;;;5114080;28;20020;-76
2022/12/12 00:39:37;;;;;;;18.40;7.15;;;2.60;85.50;;;;;;5115106;28;20469;-77
2022/12/12 00:42:02;;;;;;;19.13;7.78;;;2.60;85.50;;;;;;5114871;28;20028;-77
2022/12/12 00:44:28;;;;;;;18.88;6.85;;;2.60;85.50;;;;;;5114875;28;20036;-77
2022/12/12 00:46:54;;;;;;;17.05;7.28;;;2.50;85.10;;;;;;5114052;28;20019;-76
2022/12/12 00:49:19;;;;;;;23.75;7.63;;;2.50;85.40;;;;;;5096869;28;20162;-77
2022/12/12 00:51:45;;;;;;;24.02;8.38;;;2.40;85.60;;;;;;5114456;28;20070;-76
2022/12/12 00:54:11;;;;;;;16.92;7.65;;;2.40;85.90;;;;;;5113793;28;20036;-76
2022/12/12 00:56:38;;;;;;;18.48;7.50;;;2.40;85.80;;;;;;5114647;28;20024;-77
2022/12/12 00:59:04;;;;;;;17.30;7.85;;;2.30;85.90;;;;;;5114610;28;20078;-77
2022/12/12 01:01:31;;;;;;;18.05;6.95;;;2.40;86.20;;;;;;5114621;28;20032;-76
2022/12/12 01:03:58;;;;;;;20.05;8.18;;;2.40;86.30;;;;;;5113479;28;20077;-76
2022/12/12 01:06:24;;;;;;;21.52;8.77;;;2.40;86.40;;;;;;5113534;28;20024;-76
2022/12/12 01:08:50;;;;;;;24.02;8.57;;;2.40;86.50;;;;;;5114379;28;20095;-76
2022/12/12 01:11:16;;;;;;;19.20;7.93;;;2.30;86.40;;;;;;5113397;28;20035;-76
2022/12/12 01:13:42;;;;;;;20.00;8.98;;;2.30;86.40;;;;;;5114380;28;20028;-76
2022/12/12 01:16:09;;;;;;;21.95;8.60;;;2.30;86.50;;;;;;5114275;28;20028;-77
2022/12/12 01:18:35;;;;;;;22.02;8.40;;;2.30;86.40;;;;;;5114243;28;20483;-76
2022/12/12 01:21:02;;;;;;;23.08;9.52;;;2.30;86.40;;;;;;5113227;28;20048;-76
2022/12/12 01:23:27;;;;;;;20.40;7.80;;;2.20;86.40;;;;;;5114172;28;20046;-77
2022/12/12 01:26:01;;;;;;;20.50;8.18;;;2.30;86.40;;;;;;5112933;28;20024;-76
2022/12/12 01:28:26;;;;;;;24.88;9.30;;;2.20;86.50;;;;;;5114091;28;20047;-77
2022/12/12 01:30:52;;;;;;;20.25;8.27;;;2.20;86.60;;;;;;5112973;28;20035;-76
2022/12/12 01:33:18;;;;;;;21.17;8.35;;;2.10;86.40;;;;;;5112989;28;20028;-76
2022/12/12 01:35:44;;;;;;;15.75;8.27;;;2.10;86.40;;;;;;5113972;28;20092;-77
2022/12/12 01:38:09;;;;;;;19.75;8.73;;;2.00;86.40;;;;;;5096067;28;20020;-77
2022/12/12 01:40:35;;;;;;;15.80;7.32;;;2.00;86.70;;;;;;5112773;28;20062;-77
2022/12/12 01:43:01;;;;;;;18.90;8.05;;;2.00;86.70;;;;;;5112915;28;20076;-77
2022/12/12 01:46:01;;;;;;;17.58;7.45;;;2.00;86.60;;;;;;5112776;28;20600;-77
2022/12/12 01:48:47;;;;;;;18.05;7.50;;;2.00;86.60;;;;;;5113949;28;20024;-75
2022/12/12 01:51:16;;;;;;;15.70;6.82;;;2.00;86.30;;;;;;5113499;28;20048;-76
2022/12/12 01:53:43;;;;;;;13.48;7.10;;;1.90;86.00;;;;;;5113703;28;20028;-76
2022/12/12 01:56:12;;;;;;;22.10;7.88;;;1.80;86.00;;;;;;5113646;28;20024;-77
2022/12/12 01:58:41;;;;;;;18.48;8.10;;;1.70;85.90;;;;;;5113614;28;20031;-77
2022/12/12 02:01:08;;;;;;;17.65;7.18;;;1.60;86.10;;;;;;5113534;28;20024;-77
2022/12/12 02:03:33;;;;;;;22.27;9.57;;;1.60;86.20;;;;;;5113580;28;20026;-77
2022/12/12 02:06:02;;;;;;;18.73;8.02;;;1.50;86.30;;;;;;5113330;28;20035;-76
2022/12/12 02:08:29;;;;;;;20.60;7.97;;;1.60;86.70;;;;;;5112432;28;20012;-76
2022/12/12 02:10:54;;;;;;;21.83;7.47;;;1.50;86.80;;;;;;5113516;28;20032;-77
2022/12/12 02:13:28;;;;;;;24.88;7.65;;;1.60;86.60;;;;;;5113492;28;20058;-76
2022/12/12 02:16:19;;;;;;;16.65;8.00;;;1.50;86.50;;;;;;5112545;28;20043;-76
2022/12/12 02:19:20;;;;;;;19.40;7.72;;;1.50;87.60;;;;;;5113498;28;20032;-76
2022/12/12 02:22:06;;;;;;;15.85;6.72;;;1.50;86.90;;;;;;5073944;28;20040;-76
2022/12/12 02:24:50;;;;;;;18.40;6.93;;;1.40;86.80;;;;;;5113586;28;20020;-76
2022/12/12 02:27:54;;;;;;;14.57;7.07;;;1.30;87.20;;;;;;5112408;28;20028;-76
2022/12/12 02:30:21;;;;;;;14.45;6.20;;;1.20;87.00;;;;;;5099037;28;20060;-76
2022/12/12 02:33:10;;;;;;;19.38;8.13;;;1.20;87.70;;;;;;5113309;28;20020;-76
2022/12/12 02:36:01;;;;;;;17.48;6.20;;;1.10;88.00;;;;;;5112232;28;20050;-77
2022/12/12 02:38:39;;;;;;;16.80;5.85;;;1.10;88.10;;;;;;5113275;28;20043;-77
2022/12/12 02:41:31;;;;;;;18.70;7.05;;;1.10;88.50;;;;;;5113213;28;20035;-76
2022/12/12 02:44:00;;;;;;;;;;;1.10;89.00;;;;;;5113675;28;20024;-76
2022/12/12 02:46:53;;;;;;;12.82;5.60;;;1.00;89.20;;;;;;5112233;28;19904;-77
2022/12/12 02:49:28;;;;;;;16.38;6.85;;;1.00;89.50;;;;;;5113231;28;20368;-77
2022/12/12 02:51:55;;;;;;;17.55;7.70;;;0.90;89.40;;;;;;5113063;28;20091;-77
2022/12/12 02:54:22;;;;;;;18.55;7.95;;;0.90;89.40;;;;;;5113121;28;20028;-77
2022/12/12 02:56:49;;;;;;;19.02;8.20;;;0.90;89.40;;;;;;5112236;28;20080;-77
2022/12/12 02:59:21;;;;;;;17.35;7.47;;;1.00;89.50;;;;;;5113076;28;20051;-77
2022/12/12 03:02:06;;;;;;;;;;;1.00;89.60;;;;;;5113423;28;20024;-77
2022/12/12 03:08:09;;;;;;;18.73;7.22;;;0.90;89.70;;;;;;5113055;28;20043;-77
2022/12/12 03:11:02;;;;;;;21.13;8.52;;;0.90;90.00;;;;;;5113008;28;20038;-77
2022/12/12 03:13:37;;;;;;;19.70;9.15;;;0.90;90.00;;;;;;5112008;28;20025;-77
2022/12/12 03:16:27;;;;;;;23.70;9.20;;;0.90;90.00;;;;;;5113124;28;20032;-77
2022/12/12 03:19:26;;;;;;;17.45;7.47;;;1.00;89.90;;;;;;5114623;28;20024;-77
2022/12/12 03:21:59;;;;;;;21.38;8.68;;;1.10;89.50;;;;;;5083873;28;20040;-77
2022/12/12 03:24:29;;;;;;;20.33;7.35;;;1.10;89.70;;;;;;5116505;28;20470;-77
2022/12/12 03:27:09;;;;;;;20.48;8.95;;;1.00;88.80;;;;;;5116408;28;20020;-77
2022/12/12 03:29:41;;;;;;;17.73;7.55;;;1.10;88.90;;;;;;5116422;28;20035;-77
2022/12/12 03:32:09;;;;;;;;;;;1.10;88.30;;;;;;5116795;28;20020;-77
2022/12/12 03:35:05;;;;;;;18.55;8.00;;;1.10;88.30;;;;;;5116435;28;19914;-76
2022/12/12 03:37:38;;;;;;;21.52;8.70;;;1.00;88.40;;;;;;5087505;28;20467;-77
2022/12/12 03:40:17;;;;;;;20.80;8.10;;;1.00;88.40;;;;;;5115122;28;20021;-77
2022/12/12 03:42:58;;;;;;;17.45;7.35;;;0.90;88.00;;;;;;5116147;28;20044;-77
2022/12/12 03:45:33;;;;;;;18.00;7.20;;;0.90;88.20;;;;;;5115110;28;20024;-77
2022/12/12 03:48:11;;;;;;;19.77;8.05;;;0.90;87.90;;;;;;5116058;28;20016;-77
2022/12/12 03:50:59;;;;;;;16.60;7.10;;;1.00;87.70;;;;;;5115804;28;20076;-77
2022/12/12 03:53:47;;;;;;;18.10;7.65;;;0.90;87.20;;;;;;5103346;28;20161;-77
2022/12/12 03:56:30;;;;;;;18.40;8.73;;;0.90;87.30;;;;;;5115856;28;20024;-77
2022/12/12 03:59:27;;;;;;;22.25;8.90;;;0.80;87.20;;;;;;5115844;28;20024;-77
2022/12/12 04:02:21;;;;;;;20.35;8.98;;;0.80;87.40;;;;;;5109577;28;20040;-77
2022/12/12 04:05:22;;;;;;;23.90;8.30;;;0.70;87.60;;;;;;5114672;28;20028;-77
2022/12/12 04:07:53;;;;;;;19.70;7.32;;;0.70;87.60;;;;;;5115732;28;20026;-77
2022/12/12 04:13:15;;;;;;;18.80;8.45;;;0.60;87.80;;;;;;5115747;28;20091;-77
2022/12/12 04:15:50;;;;;;;19.23;8.27;;;0.60;87.70;;;;;;5115644;28;20457;-77
2022/12/12 04:18:40;;;;;;;21.20;8.95;;;0.70;87.60;;;;;;5115427;28;20103;-77
2022/12/12 04:24:28;;;;;;;16.40;7.78;;;0.70;87.10;;;;;;5115539;28;20027;-77
2022/12/12 04:27:18;;;;;;;19.60;8.13;;;0.70;86.70;;;;;;5114275;28;20024;-77
2022/12/12 04:29:54;;;;;;;21.52;8.18;;;0.70;86.60;;;;;;5114178;28;20027;-77
2022/12/12 04:32:31;;;;;;;19.77;8.40;;;0.50;86.00;;;;;;5115200;28;20088;-77
2022/12/12 04:35:03;;;;;;;20.92;8.35;;;0.50;86.30;;;;;;5115051;28;20035;-77
2022/12/12 04:37:38;;;;;;;20.92;9.30;;;0.40;86.10;;;;;;5115265;28;20039;-77
2022/12/12 04:40:07;;;;;;;23.55;10.15;;;0.40;86.50;;;;;;5114943;28;20020;-77
2022/12/12 04:42:37;;;;;;;16.95;8.25;;;0.40;86.50;;;;;;5114892;28;20016;-77
2022/12/12 04:45:26;;;;;;;18.58;8.23;;;0.40;86.50;;;;;;5114089;28;20008;-77
2022/12/12 04:47:54;;;;;;;19.52;8.63;;;0.40;86.90;;;;;;5114810;28;20020;-77
2022/12/12 04:50:24;;;;;;;24.63;9.60;;;0.40;87.00;;;;;;5114127;28;20093;-77
2022/12/12 04:52:52;;;;;;;19.90;7.72;;;0.40;86.60;;;;;;5114621;28;20119;-77
2022/12/12 04:55:27;;;;;;;26.35;9.13;;;0.40;86.70;;;;;;5114701;28;20020;-77
2022/12/12 04:57:54;;;;;;;20.95;8.23;;;0.40;86.20;;;;;;5114666;28;20031;-77
2022/12/12 05:00:22;;;;;;;18.75;7.82;;;0.30;85.80;;;;;;5114526;28;20020;-77
2022/12/12 05:03:05;;;;;;;20.08;8.13;;;0.30;87.20;;;;;;5114543;28;20024;-77
2022/12/12 05:05:50;;;;;;;19.60;8.88;;;0.30;86.50;;;;;;5114690;28;20035;-77
2022/12/12 05:08:25;;;;;;;17.70;7.63;;;0.30;86.50;;;;;;5114384;28;20028;-77
2022/12/12 05:10:54;;;;;;;21.02;9.02;;;0.30;86.50;;;;;;5114458;28;20032;-77
2022/12/12 05:13:23;;;;;;;20.75;8.45;;;0.30;86.40;;;;;;5114370;28;20026;-77
2022/12/12 05:15:52;;;;;;;20.08;8.20;;;0.30;86.10;;;;;;5114332;28;20035;-77
2022/12/12 05:18:18;;;;;;;18.80;7.75;;;0.30;85.90;;;;;;5113331;28;20038;-77
2022/12/12 05:20:44;;;;;;;17.77;8.43;;;0.30;86.00;;;;;;5114151;28;20061;-77
2022/12/12 05:23:10;;;;;;;21.70;8.20;;;0.30;85.80;;;;;;5113186;28;20032;-77
2022/12/12 05:25:35;;;;;;;20.15;6.43;;;0.30;85.60;;;;;;5113368;28;20024;-77
2022/12/12 05:28:01;;;;;;;23.75;8.63;;;0.20;85.60;;;;;;5113092;28;20035;-77
2022/12/12 05:30:27;;;;;;;18.80;8.13;;;0.20;85.30;;;;;;5114195;28;20028;-77
2022/12/12 05:32:53;;;;;;;24.10;8.60;;;0.30;85.80;;;;;;5114054;28;20055;-77
2022/12/12 05:35:19;;;;;;;20.73;7.82;;;0.20;85.80;;;;;;5114022;28;20027;-77
2022/12/12 05:37:44;;;;;;;24.02;9.20;;;0.20;85.60;;;;;;5096202;28;20525;-77
2022/12/12 05:40:11;;;;;;;19.05;7.57;;;0.20;85.80;;;;;;5113338;28;20028;-77
2022/12/12 05:42:37;;;;;;;19.42;8.32;;;0.20;85.50;;;;;;5113832;28;20024;-77
2022/12/12 05:45:04;;;;;;;18.08;8.27;;;0.20;85.20;;;;;;5112824;28;20046;-76
2022/12/12 05:47:30;;;;;;;18.92;8.35;;;0.20;85.20;;;;;;5095860;28;20104;-77
2022/12/12 05:49:55;;;;;;;20.92;8.55;;;0.10;85.00;;;;;;5113787;28;20024;-77
2022/12/12 05:52:21;;;;;;;21.88;8.43;;;0.10;85.10;;;;;;5112632;28;20095;-77
2022/12/12 05:54:46;;;;;;;17.27;7.60;;;0.00;85.30;;;;;;5112794;28;20085;-77
2022/12/12 05:57:12;;;;;;;20.60;7.97;;;0.00;85.20;;;;;;5113671;28;20039;-77
2022/12/12 05:59:38;;;;;;;24.30;9.35;;;0.00;85.00;;;;;;5113668;28;20028;-77
2022/12/12 06:02:03;;;;;;;16.85;7.15;;;-0.10;85.10;;;;;;5113556;28;20054;-77
2022/12/12 06:04:29;;;;;;;21.65;6.70;;;0.00;85.00;;;;;;5112656;28;20028;-77
2022/12/12 06:06:54;;;;;;;20.10;7.85;;;-0.10;85.00;;;;;;5112689;28;20071;-77
2022/12/12 06:09:20;;;;;;;19.92;8.18;;;-0.10;85.10;;;;;;5113442;28;20043;-77
2022/12/12 06:11:45;;;;;;;16.73;7.10;;;0.00;85.00;;;;;;5112596;28;20088;-77
2022/12/12 06:14:11;;;;;;;14.35;6.85;;;0.00;85.50;;;;;;5095637;28;20025;-77
2022/12/12 06:16:37;;;;;;;17.10;7.22;;;-0.10;84.00;;;;;;5095611;28;20042;-76
2022/12/12 06:19:02;;;;;;;16.48;7.25;;;-0.10;84.00;;;;;;5112503;28;20029;-76
2022/12/12 06:21:28;;;;;;;16.05;7.50;;;-0.20;84.30;;;;;;5113308;28;20036;-77
2022/12/12 06:23:54;;;;;;;19.23;6.78;;;-0.20;84.60;;;;;;5112609;28;20048;-77
2022/12/12 06:26:20;;;;;;;20.00;8.35;;;-0.20;84.80;;;;;;5113380;28;20024;-77
2022/12/12 06:28:47;;;;;;;19.25;8.35;;;-0.20;84.40;;;;;;5113339;28;20024;-76
2022/12/12 06:31:13;;;;;;;21.63;8.68;;;-0.30;85.00;;;;;;5112500;28;20028;-76
2022/12/12 06:33:41;;;;;;;21.60;8.55;;;-0.30;84.50;;;;;;5113315;28;20020;-76
2022/12/12 06:36:13;;;;;;;18.23;7.40;;;-0.30;85.50;;;;;;5113284;28;20038;-77
2022/12/12 06:38:39;;;;;;;24.15;7.38;;;-0.40;84.90;;;;;;5113276;28;20032;-77
2022/12/12 06:41:07;;;;;;;17.85;7.85;;;-0.30;84.00;;;;;;5113176;28;20042;-76
2022/12/12 06:43:33;;;;;;;24.95;8.15;;;-0.30;84.10;;;;;;5095284;28;20025;-76
2022/12/12 06:46:03;;;;;;;17.33;8.10;;;-0.30;83.60;;;;;;5112165;28;20028;-76
2022/12/12 06:48:30;;;;;;;21.38;8.23;;;-0.40;83.40;;;;;;5112118;28;20054;-77
2022/12/12 06:50:56;;;;;;;15.98;7.35;;;-0.40;84.00;;;;;;5111936;28;20040;-76
2022/12/12 06:53:22;;;;;;;13.90;6.85;;;-0.40;84.20;;;;;;5114951;28;20043;-76
2022/12/12 06:55:47;;;;;;;15.93;6.53;;;-0.40;84.20;;;;;;5116889;28;20111;-76
2022/12/12 06:58:13;;;;;;;14.60;7.18;;;-0.40;84.10;;;;;;5117018;28;20039;-78
2022/12/12 07:00:40;;;;;;;18.10;8.10;;;-0.40;83.90;;;;;;5116849;28;20103;-78
2022/12/12 07:03:06;;;;;;;13.63;5.85;;;-0.50;83.70;;;;;;5115994;28;20154;-78
2022/12/12 07:05:31;;;;;;;17.45;6.35;;;-0.60;83.90;;;;;;5116838;28;20020;-78
2022/12/12 07:08:01;;;;;;;14.70;6.05;;;-0.60;84.00;;;;;;5116722;28;20050;-79
2022/12/12 07:10:29;;;;;;;18.48;7.07;;;-0.70;84.40;;;;;;5116780;28;20028;-78
2022/12/12 07:12:55;;;;;;;17.58;6.55;;;-0.70;84.50;;;;;;5099051;28;20028;-79
2022/12/12 07:15:21;;;;;;;19.92;7.75;;;-0.70;84.70;;;;;;5115736;28;20087;-78
2022/12/12 07:17:46;;;;;;;18.17;7.18;;;-0.70;84.60;;;;;;5098704;28;20039;-78
2022/12/12 07:20:12;;;;;;;18.15;7.05;;;-0.70;84.60;;;;;;5098539;28;20036;-78
2022/12/12 07:22:37;;;;;;;22.63;9.32;;;-0.60;84.80;;;;;;5115573;28;20028;-78
2022/12/12 07:25:05;;;;;;;21.63;8.00;;;-0.60;84.80;;;;;;5098574;28;20020;-78
2022/12/12 07:27:31;;;;;;;19.70;7.22;;;-0.60;84.50;;;;;;5115487;28;20046;-78
2022/12/12 07:29:56;;;;;;;20.52;7.75;;;-0.60;84.60;;;;;;5115504;28;20467;-78
2022/12/12 07:32:22;;;;;;;20.48;7.85;;;-0.60;85.00;;;;;;5115363;28;20057;-78
2022/12/12 07:34:47;;;;;;;19.25;7.18;;;-0.50;84.70;;;;;;5115541;28;20024;-78
2022/12/12 07:37:13;;;;;;;16.27;7.55;;;-0.50;84.80;;;;;;5116246;28;20032;-78
2022/12/12 07:39:39;;;;;;;25.75;7.90;;;-0.50;84.80;;;;;;5098308;28;20028;-78
2022/12/12 07:42:04;;;;;;;21.83;7.70;;;-0.50;84.70;;;;;;5115213;28;20507;-78
2022/12/12 07:44:30;;;;;;;15.05;7.07;;;-0.50;84.80;;;;;;5116099;28;20031;-78
2022/12/12 07:46:58;;;;;;;19.10;7.18;;;-0.50;84.70;;;;;;5116050;28;20370;-78
2022/12/12 07:49:24;;;;;;;19.42;7.70;;;-0.50;84.30;;;;;;5115123;28;20032;-78
2022/12/12 07:51:50;;;;;;;18.40;7.57;;;-0.50;85.60;;;;;;5114842;28;20062;-78
2022/12/12 07:54:16;;;;;;;19.90;8.20;;;-0.50;84.30;;;;;;5115923;28;20118;-77
2022/12/12 07:56:42;;;;;;;23.85;9.18;;;-0.50;84.50;;;;;;5114818;28;20036;-77
2022/12/12 07:59:07;;;;;;;18.50;8.43;;;-0.50;84.60;;;;;;5114916;28;20035;-77
2022/12/12 08:01:33;;;;;;;21.35;8.60;;;-0.50;84.50;;;;;;5114597;28;20024;-77
2022/12/12 08:03:59;;;;;;;21.63;7.32;;;-0.40;84.60;;;;;;5115304;28;20028;-77
2022/12/12 08:06:24;;;;;;;16.98;7.40;;;-0.40;84.10;;;;;;5114752;28;20079;-77
2022/12/12 08:08:51;;;;;;;17.70;7.57;;;-0.40;84.00;;;;;;5114636;28;20471;-77
2022/12/12 08:11:20;;;;;;;19.40;7.28;;;-0.40;84.20;;;;;;5115568;28;20053;-77
2022/12/12 08:13:46;;;;;;;22.67;9.57;;;-0.40;84.20;;;;;;5115553;28;20035;-76
2022/12/12 08:16:19;;;;;;;20.90;9.32;;;-0.40;83.80;;;;;;5114493;28;20036;-76
2022/12/12 08:18:45;;;;;;;21.60;8.60;;;-0.40;84.10;;;;;;5115564;28;20043;-76
2022/12/12 08:21:13;;;;;;;21.35;8.02;;;-0.40;84.90;;;;;;5114454;28;20062;-76
2022/12/12 08:23:39;;;;;;;21.50;8.18;;;-0.30;84.20;;;;;;5097485;28;20032;-76
2022/12/12 08:26:07;;;;;;;23.25;9.15;;;-0.30;84.20;;;;;;5114466;28;20043;-76
2022/12/12 08:28:33;;;;;;;22.75;9.38;;;-0.20;84.20;;;;;;5115283;28;20076;-74
2022/12/12 08:30:58;;;;;;;21.23;8.05;;;-0.20;83.90;;;;;;5115195;28;20449;-74
2022/12/12 08:33:24;;;;;;;20.92;9.32;;;-0.20;84.60;;;;;;5114185;28;20212;-74
2022/12/12 08:35:50;;;;;;;23.23;8.82;;;-0.20;84.10;;;;;;5114138;28;20104;-74
2022/12/12 08:38:15;;;;;;;22.27;9.48;;;0.00;84.10;;;;;;5113985;28;20042;-74
2022/12/12 08:40:41;;;;;;;25.90;9.93;;;0.00;84.80;;;;;;5114030;28;20032;-74
2022/12/12 08:43:08;;;;;;;22.58;7.95;;;0.10;83.50;;;;;;5114994;28;20391;-74
2022/12/12 08:45:33;;;;;;;27.65;8.70;;;0.20;83.60;;;;;;5113852;28;20077;-74
2022/12/12 08:47:59;;;;;;;24.02;8.75;;;0.60;83.80;;;;;;5113990;28;20032;-75
2022/12/12 08:50:25;;;;;;;19.60;7.93;;;0.90;82.50;;;;;;5113926;28;20058;-77
2022/12/12 08:52:50;;;;;;;20.27;7.70;;;0.80;81.30;;;;;;5096730;28;20073;-76
2022/12/12 08:55:16;;;;;;;18.48;9.07;;;0.70;81.10;;;;;;5114742;28;20111;-76
2022/12/12 08:57:42;;;;;;;18.02;7.38;;;0.60;81.30;;;;;;5114711;28;20024;-76
2022/12/12 09:00:08;;;;;;;17.70;8.32;;;0.40;82.50;;;;;;5113756;28;20032;-76
2022/12/12 09:02:33;;;;;;;21.10;8.13;;;0.30;82.30;;;;;;5114538;28;20024;-76
2022/12/12 09:04:59;;;;;;;21.63;8.15;;;0.30;82.80;;;;;;5113459;28;20054;-76
2022/12/12 09:07:25;;;;;;;23.92;8.55;;;0.20;82.90;;;;;;5113554;28;20028;-76
2022/12/12 09:09:51;;;;;;;17.50;8.25;;;0.30;83.40;;;;;;5114375;28;20021;-76
2022/12/12 09:12:16;;;;;;;25.15;7.72;;;0.30;83.40;;;;;;5113522;28;20036;-76
2022/12/12 09:14:42;;;;;;;15.13;5.85;;;0.40;83.20;;;;;;5113167;28;20032;-76
2022/12/12 09:17:07;;;;;;;19.88;8.02;;;1.00;83.00;;;;;;5112947;28;20020;-76
2022/12/12 09:19:33;;;;;;;17.73;8.02;;;1.80;80.50;;;;;;5113350;28;20077;-76
2022/12/12 09:21:58;;;;;;;25.00;10.10;;;2.90;77.20;;;;;;5113240;28;20044;-76
2022/12/12 09:24:24;;;;;;;26.83;9.68;;;4.00;75.20;;;;;;5114151;28;20028;-77
2022/12/12 09:26:50;;;;;;;21.90;9.57;;;4.80;71.80;;;;;;5114180;28;20030;-77
2022/12/12 09:29:16;;;;;;;26.58;9.50;;;5.50;69.10;;;;;;5114125;28;20036;-76
2022/12/12 09:31:42;;;;;;;28.00;10.73;;;5.90;65.70;;;;;;5114087;28;20032;-74
2022/12/12 09:34:08;;;;;;;26.80;10.35;;;6.50;66.50;;;;;;5114041;28;20065;-76
2022/12/12 09:36:34;;;;;;;26.58;10.32;;;7.10;64.60;;;;;;5113996;28;20445;-74
2022/12/12 09:39:00;;;;;;;21.02;9.20;;;7.50;63.00;;;;;;5113024;28;20028;-74
2022/12/12 09:41:26;;;;;;;24.63;11.10;;;7.40;61.20;;;;;;5113853;28;20058;-74
2022/12/12 09:44:11;;;;;;;22.02;8.90;;;7.30;61.70;;;;;;5113899;28;20024;-74
2022/12/12 09:46:40;;;;;;;24.55;10.30;;;7.20;60.50;;;;;;5113835;28;20024;-74
2022/12/12 09:49:15;;;;;;;26.33;9.90;;;6.70;61.50;;;;;;5113793;28;20024;-74
2022/12/12 09:51:44;;;;;;;24.45;9.43;;;6.30;62.50;;;;;;5113736;28;20040;-74
2022/12/12 09:54:22;;;;;;;17.65;8.20;;;6.10;62.80;;;;;;5113768;28;20027;-74
2022/12/12 09:57:15;;;;;;;24.00;9.02;;;6.00;63.50;;;;;;5112816;28;20039;-74
2022/12/12 09:59:54;;;;;;;21.23;8.90;;;6.30;63.80;;;;;;5113694;28;20186;-74
2022/12/12 10:02:38;;;;;;;19.40;7.70;;;5.90;62.50;;;;;;5113702;28;20016;-74
2022/12/12 10:05:20;;;;;;;20.25;8.55;;;5.50;63.80;;;;;;5113690;28;20076;-74
2022/12/12 10:08:02;;;;;;;26.58;8.75;;;5.40;64.30;;;;;;5112513;28;20054;-74
2022/12/12 10:10:35;;;;;;;23.25;10.25;;;5.40;66.20;;;;;;5113644;28;20097;-74
2022/12/12 10:13:03;;;;;;;21.35;8.57;;;5.40;66.30;;;;;;5113541;28;20028;-74
2022/12/12 10:15:46;;;;;;;23.20;9.13;;;5.80;65.30;;;;;;5112654;28;20024;-74
2022/12/12 10:18:14;;;;;;;;;;;6.30;64.50;;;;;;5113948;28;20031;-74
2022/12/12 10:20:50;;;;;;;26.23;9.57;;;6.80;62.80;;;;;;5113394;28;19990;-74
2022/12/12 10:23:31;;;;;;;19.52;7.95;;;7.40;62.70;;;;;;5113608;28;20043;-74
2022/12/12 10:26:29;;;;;;;23.05;9.90;;;7.80;59.90;;;;;;5113556;28;20024;-74
2022/12/12 10:29:07;;;;;;;23.30;8.90;;;8.20;57.50;;;;;;5061978;28;20090;-74
2022/12/12 10:32:08;;;;;;;21.00;9.43;;;8.60;57.50;;;;;;5117574;28;20036;-74
2022/12/12 10:35:01;;;;;;;20.40;8.20;;;8.20;56.40;;;;;;5079328;28;20044;-74
2022/12/12 10:37:44;;;;;;;18.00;8.20;;;7.10;58.10;;;;;;5117459;28;20024;-74
2022/12/12 10:40:29;;;;;;;19.45;9.25;;;6.50;61.40;;;;;;5116384;28;20028;-73
2022/12/12 10:43:04;;;;;;;14.95;6.68;;;5.90;63.20;;;;;;5117481;28;20024;-74
2022/12/12 10:45:43;;;;;;;15.57;6.88;;;5.40;63.50;;;;;;5117447;28;20076;-74
2022/12/12 10:48:09;;;;;;;17.45;6.47;;;5.10;64.80;;;;;;5117259;28;20030;-74
2022/12/12 10:50:40;;;;;;;17.92;6.85;;;4.70;66.00;;;;;;5116203;28;20051;-74
2022/12/12 10:53:08;;;;;;;17.52;7.72;;;4.50;67.10;;;;;;5116865;28;20074;-74
2022/12/12 10:55:56;;;;;;;21.48;7.05;;;4.40;67.80;;;;;;5116999;28;20119;-73
2022/12/12 10:58:53;;;;;;;19.27;7.70;;;4.20;68.50;;;;;;5117097;28;20108;-75
2022/12/12 11:01:20;;;;;;;15.35;5.22;;;4.00;69.30;;;;;;5114298;28;20040;-76
2022/12/12 11:03:48;;;;;;;12.88;5.13;;;3.80;69.60;;;;;;5116899;28;20035;-76
2022/12/12 11:06:35;;;;;;;14.40;6.65;;;3.60;69.90;;;;;;5115928;28;20022;-76
2022/12/12 11:09:26;;;;;;;17.10;6.85;;;3.50;71.30;;;;;;5116756;28;20024;-76
2022/12/12 11:12:11;;;;;;;15.48;6.80;;;3.40;71.50;;;;;;5116806;28;20397;-76
2022/12/12 11:14:47;;;;;;;22.95;6.03;;;3.40;72.10;;;;;;5116908;28;20019;-76
2022/12/12 11:17:20;;;;;;;14.15;5.70;;;3.40;72.60;;;;;;5115675;28;20095;-76
2022/12/12 11:19:46;;;;;;;17.92;6.40;;;3.40;72.50;;;;;;5116665;28;20035;-76
2022/12/12 11:22:13;;;;;;;13.15;5.38;;;3.30;72.60;;;;;;5115577;28;20032;-76
2022/12/12 11:24:42;;;;;;;9.43;3.53;;;3.30;73.00;;;;;;5115671;28;20024;-76
2022/12/12 11:27:21;;;;;;;9.80;4.65;;;3.30;72.60;;;;;;5115448;28;20055;-76
2022/12/12 11:29:48;;;;;;;14.40;5.65;;;3.30;73.10;;;;;;5115508;28;20020;-76
2022/12/12 11:32:16;;;;;;;15.95;7.22;;;3.20;73.00;;;;;;5116371;28;20028;-76
2022/12/12 11:34:55;;;;;;;8.05;4.03;;;3.20;73.90;;;;;;5115420;28;20020;-76
2022/12/12 11:37:25;;;;;;;12.90;4.90;;;3.30;73.50;;;;;;5115448;28;20063;-76
2022/12/12 11:39:53;;;;;;;13.13;5.35;;;3.30;73.60;;;;;;5114409;28;20024;-76
2022/12/12 11:42:39;;;;;;;11.98;5.53;;;3.30;74.00;;;;;;5115116;28;20055;-76
2022/12/12 11:45:21;;;;;;;16.55;5.43;;;3.30;73.70;;;;;;5097801;28;20036;-77
2022/12/12 11:47:47;;;;;;;5.40;3.40;;;3.40;73.80;;;;;;5116315;28;20012;-77
2022/12/12 11:50:24;;;;;;;14.55;5.65;;;3.40;71.80;;;;;;5116189;28;20024;-76
2022/12/12 11:53:02;;;;;;;14.25;4.35;;;3.40;73.10;;;;;;5114903;28;20051;-77
2022/12/12 11:55:55;;;;;;;12.73;4.72;;;3.40;72.00;;;;;;5114988;28;20024;-77
2022/12/12 11:58:30;;;;;;;;;;;3.40;72.30;;;;;;5099377;28;20088;-76
2022/12/12 12:01:26;;;;;;;9.73;4.03;;;3.50;72.20;;;;;;5114759;28;19912;-76
2022/12/12 12:04:23;;;;;;;14.20;6.00;;;3.60;72.80;;;;;;5112800;28;20028;-77
2022/12/12 12:07:18;;;;;;;13.13;5.55;;;3.70;73.10;;;;;;5114689;28;20024;-77
2022/12/12 12:10:22;;;;;;;13.65;5.72;;;3.80;72.50;;;;;;5114728;28;20031;-77
2022/12/12 12:13:11;;;;;;;12.02;6.00;;;3.90;72.70;;;;;;5033622;28;20049;-77
2022/12/12 12:16:34;;;;;;;11.60;5.28;;;3.80;72.10;;;;;;5032822;28;20065;-77
2022/12/12 12:19:25;;;;;;;11.95;4.75;;;3.80;71.90;;;;;;5053494;28;20116;-76
2022/12/12 12:22:12;;;;;;;12.70;5.20;;;3.90;71.10;;;;;;5053267;28;20134;-76
2022/12/12 12:25:05;;;;;;;17.17;5.13;;;4.00;71.50;;;;;;5110137;28;20043;-76
2022/12/12 12:27:30;;;;;;;;;;;4.70;72.30;;;;;;5115767;28;20020;-77
2022/12/12 12:30:21;;;;;;;13.38;5.68;;;5.80;69.40;;;;;;5114259;28;19938;-77
2022/12/12 12:33:15;;;;;;;16.85;6.90;;;6.80;65.80;;;;;;5115284;28;20082;-77
2022/12/12 12:36:13;;;;;;;13.18;6.30;;;7.80;64.00;;;;;;5115200;28;20038;-75
2022/12/12 12:38:44;;;;;;;14.40;6.90;;;8.20;60.50;;;;;;5115083;28;20072;-75
2022/12/12 12:41:16;;;;;;;14.37;6.43;;;7.40;60.90;;;;;;5114976;28;20028;-74
2022/12/12 12:44:26;;;;;;;14.10;6.35;;;6.70;61.50;;;;;;5113944;28;20025;-74
2022/12/12 12:47:13;;;;;;;12.43;5.75;;;6.20;62.60;;;;;;5113997;28;20039;-74
2022/12/12 12:49:50;;;;;;;8.02;4.43;;;5.80;63.10;;;;;;5113911;28;20052;-74
2022/12/12 12:52:37;;;;;;;13.38;5.75;;;5.50;63.00;;;;;;5114689;28;20147;-74
2022/12/12 12:55:18;;;;;;;14.52;5.68;;;5.40;64.10;;;;;;5114847;28;20028;-74
2022/12/12 12:57:47;;;;;;;11.60;5.38;;;5.20;64.20;;;;;;5113774;28;20096;-74
2022/12/12 13:00:19;;;;;;;13.93;5.47;;;5.10;64.50;;;;;;5113571;28;20035;-74
2022/12/12 13:02:45;;;;;;;;;;;5.10;65.30;;;;;;5115121;28;20031;-74
2022/12/12 13:05:17;;;;;;;15.20;5.65;;;5.00;64.10;;;;;;5113598;28;19904;-74
2022/12/12 13:07:55;;;;;;;9.82;4.63;;;4.90;65.40;;;;;;5113512;28;20024;-74
2022/12/12 13:10:26;;;;;;;18.25;7.55;;;4.90;66.00;;;;;;5113822;28;20024;-74
2022/12/12 13:12:57;;;;;;;18.02;7.88;;;4.90;66.80;;;;;;5113420;28;20021;-74
2022/12/12 13:15:32;;;;;;;15.55;7.35;;;4.90;68.10;;;;;;5113521;28;20039;-74
2022/12/12 13:18:14;;;;;;;15.65;7.35;;;4.80;68.80;;;;;;5114368;28;20031;-74
2022/12/12 13:21:35;;;;;;;13.55;6.57;;;4.80;69.30;;;;;;5113159;28;20043;-74
2022/12/12 13:24:21;;;;;;;13.98;6.82;;;4.70;69.70;;;;;;5032320;28;20063;-74
2022/12/12 13:27:03;;;;;;;16.40;7.13;;;4.60;70.10;;;;;;5015857;28;20042;-74